Aérodrome :
LOGIN :

S'inscrire | Disclaimer

   EN    FR    IT 

 










Légende :    VFR   VFR Marginal   IFR   IFR Intensif   IFR Très Intensif
Visi : 
Plafond : 
>= 8 km
>= 3000ft
5 à 8 km
1000 à 3000 ft
1500m à 5 km
500 à 1000 ft
800 à 1500m
200 à 500 ft
< 800m
< 200 ft
Symboles :   Orages  Brouillard  Fortes neiges  Fortes précipitations  Vent > 20 kt
SIGMETs :   Divers  Orages  Givrage  Turbulence  Onde Orograph.  Cendres Volcan.






- Altitude de l'aérodrome : 39 ft
- Code IATA : CTA


LICC - Catania Fontanarossa

DERNIER METAR :
  • 221950Z VRB01KT CAVOK 10/01 Q1030

METARs EXPIRÉS :
  • 221920Z 33004KT 270V030 CAVOK 13/01 Q1030
  • 221850Z 35009KT 9999 FEW030 15/M05 Q1030
  • 221820Z 02007KT 9999 FEW030 14/M04 Q1029
  • 221750Z 03011KT 9999 FEW030 15/M05 Q1029
  • 221720Z 03010KT 360V060 9999 FEW030 15/M04 Q1028

TAF TAF LICC
Valide du 22 à 18h jusqu'au 23 à 18h UTC


221700Z 2218/2318 08010KT CAVOK
BECMG 2218/2220 25007KT
BECMG 2310/2312 04010KT



MET'MAP, la Météo Aéronautique d'un coup d'oeil ! - Copyright ORBIFLY Décembre 2007 - Disclaimer

ORBIFLY MET'MAP TEAM :

Programmation & Développement : Alexandra Zaïnal
Sur une idée originale de : Baudouin d'Aumeries
Assistance à la programmation : Marc-Olivier Méhu
Soutien technique & logistique : Manuel Goepfert

Contact : metmap@orbifly.com




SOURCES & CREDITS :

   NOAA